Time;durP1;ratioP1;P1;durP2;ratioP2;P2;SDS_P1;SDS_P2;PMS_P1;PMS_P2;Temp;Humidity;BMP_temperature;BMP_pressure;BME280_temperature;BME280_humidity;BME280_pressure;Samples;Min_cycle;Max_cycle;Signal;HPM_P1;HPM_P2
2022/05/03 00:00:05;;;;;;;9.50;5.65;;;;;;;9.61;60.71;100516.10;1800806;78;21072;-79
2022/05/03 00:02:51;;;;;;;10.08;6.10;;;;;;;9.62;60.39;100515.56;1800973;78;21033;-77
2022/05/03 00:05:54;;;;;;;8.40;6.12;;;;;;;9.60;60.40;100515.00;1818618;78;21204;-77
2022/05/03 00:08:40;;;;;;;8.95;5.90;;;;;;;9.57;60.61;100508.30;1852375;77;21049;-77
2022/05/03 00:11:40;;;;;;;8.10;6.00;;;;;;;9.53;60.78;100515.20;1846207;77;21015;-77
2022/05/03 00:14:26;;;;;;;10.38;6.22;;;;;;;9.50;60.88;100516.23;1836884;77;21054;-78
2022/05/03 00:16:53;;;;;;;9.28;6.00;;;;;;;9.45;61.28;100528.98;1851669;77;21085;-79
2022/05/03 00:19:20;;;;;;;10.18;6.22;;;;;;;9.41;61.47;100523.89;1838320;77;21265;-77
2022/05/03 00:21:47;;;;;;;9.58;5.83;;;;;;;9.43;61.52;100539.09;1840735;77;21605;-78
2022/05/03 00:24:14;;;;;;;8.95;5.80;;;;;;;9.45;62.00;100536.98;1851554;77;21079;-78
2022/05/03 00:26:41;;;;;;;8.53;6.03;;;;;;;9.48;62.57;100520.50;1825521;77;20912;-77
2022/05/03 00:29:08;;;;;;;7.70;5.65;;;;;;;9.48;62.71;100527.16;1841066;77;21582;-79
2022/05/03 00:31:35;;;;;;;8.60;5.90;;;;;;;9.49;62.80;100539.43;1849204;77;21508;-76
2022/05/03 00:34:03;;;;;;;7.47;5.65;;;;;;;9.53;62.89;100530.40;1785851;78;21082;-78
2022/05/03 00:36:31;;;;;;;9.00;6.00;;;;;;;9.58;63.00;100523.27;1808571;78;21057;-77
2022/05/03 00:38:58;;;;;;;8.30;5.87;;;;;;;9.62;63.08;100527.03;1797020;78;21063;-78
2022/05/03 00:41:39;;;;;;;7.85;5.78;;;;;;;9.65;63.09;100519.60;1819062;77;21030;-79
2022/05/03 00:47:17;;;;;;;8.45;5.65;;;;;;;9.63;63.25;100518.50;1820590;78;21216;-78
2022/05/03 00:50:08;;;;;;;8.10;5.47;;;;;;;9.59;63.39;100507.53;1782999;78;21081;-77
2022/05/03 00:52:56;;;;;;;9.38;5.03;;;;;;;9.58;63.25;100501.13;1814684;78;21078;-78
2022/05/03 00:55:51;;;;;;;10.20;5.35;;;;;;;9.59;63.05;100502.20;1813183;78;21046;-78
2022/05/03 00:58:44;;;;;;;9.10;4.90;;;;;;;9.63;62.57;100500.64;1804705;78;21163;-78
2022/05/03 01:01:33;;;;;;;7.05;4.62;;;;;;;9.71;62.02;100499.39;1803334;78;21557;-79
2022/05/03 01:04:42;;;;;;;8.43;5.67;;;;;;;9.77;61.51;100498.89;1841903;77;21003;-78
2022/05/03 01:07:35;;;;;;;7.25;5.42;;;;;;;9.84;61.17;100496.85;1729983;80;21156;-78
2022/05/03 01:10:14;;;;;;;9.05;5.70;;;;;;;9.90;61.06;100490.47;1799799;78;21043;-79
2022/05/03 01:13:30;;;;;;;8.45;5.25;;;;;;;9.91;60.94;100494.77;1817344;78;21118;-78
2022/05/03 01:16:27;;;;;;;7.78;5.10;;;;;;;9.90;60.94;100492.34;1818579;78;21051;-77
2022/05/03 01:19:01;;;;;;;9.75;5.47;;;;;;;9.78;61.07;100489.86;1812498;77;22176;-78
2022/05/03 01:22:09;;;;;;;8.00;5.58;;;;;;;9.68;61.34;100490.56;1769910;77;21081;-78
2022/05/03 01:24:56;;;;;;;8.00;5.37;;;;;;;9.64;61.52;100486.80;1824661;78;20915;-77
2022/05/03 01:28:00;;;;;;;8.55;5.83;;;;;;;9.70;61.55;100488.43;1817988;78;21710;-78
2022/05/03 01:30:30;;;;;;;7.47;5.33;;;;;;;9.76;61.48;100488.76;1811925;78;21097;-77
2022/05/03 01:33:08;;;;;;;7.50;5.20;;;;;;;9.84;61.41;100490.18;1824353;78;21057;-76
2022/05/03 01:35:38;;;;;;;6.97;4.72;;;;;;;9.88;61.46;100493.95;1826303;78;21181;-76
2022/05/03 01:38:58;;;;;;;6.72;5.03;;;;;;;9.91;61.49;100484.10;1817799;78;21026;-77
2022/05/03 01:41:51;;;;;;;6.92;4.80;;;;;;;9.89;61.68;100488.08;1803918;78;21079;-77
2022/05/03 01:44:39;;;;;;;6.40;4.60;;;;;;;9.90;61.83;100487.80;1827056;78;22224;-76
2022/05/03 01:47:22;;;;;;;7.15;4.95;;;;;;;9.98;61.93;100481.22;1827784;78;21026;-78
2022/05/03 01:50:26;;;;;;;6.87;4.60;;;;;;;10.02;62.00;100483.11;1826466;78;21034;-77
2022/05/03 01:53:31;;;;;;;8.10;4.92;;;;;;;10.06;62.08;100482.88;1825030;78;21557;-78
2022/05/03 01:56:36;;;;;;;7.37;4.83;;;;;;;10.05;62.16;100480.47;1821737;78;21077;-77
2022/05/03 01:59:11;;;;;;;6.92;4.35;;;;;;;10.06;62.15;100474.06;1802918;78;21081;-76
2022/05/03 02:01:45;;;;;;;6.72;4.30;;;;;;;10.13;61.80;100469.31;1822551;78;21057;-77
2022/05/03 02:04:45;;;;;;;7.33;4.60;;;;;;;10.20;60.95;100467.25;1828898;78;21038;-76
2022/05/03 02:07:53;;;;;;;7.92;4.58;;;;;;;10.29;60.08;100467.05;1807304;77;21525;-77
2022/05/03 02:10:44;;;;;;;6.85;4.03;;;;;;;10.43;58.70;100463.94;1821993;77;21105;-78
2022/05/03 02:16:45;;;;;;;7.20;4.40;;;;;;;10.68;56.60;100456.06;1795830;80;21350;-77
2022/05/03 02:19:26;;;;;;;6.67;4.30;;;;;;;10.79;55.64;100456.91;1808777;79;21003;-79
2022/05/03 02:22:32;;;;;;;8.15;4.15;;;;;;;10.91;55.13;100455.38;1822711;78;21050;-77
2022/05/03 02:25:51;;;;;;;7.90;4.25;;;;;;;10.93;54.64;100452.72;1855935;77;21209;-76
2022/05/03 02:28:52;;;;;;;6.80;4.20;;;;;;;10.99;53.99;100450.84;1830126;77;21065;-76
2022/05/03 02:31:39;;;;;;;;;;;;;;;11.04;53.60;100454.34;1784141;77;21141;-78
2022/05/03 02:34:48;;;;;;;8.30;4.10;;;;;;;11.08;53.05;100455.16;1826231;77;20167;-78
2022/05/03 02:37:22;;;;;;;8.37;3.87;;;;;;;11.08;52.85;100455.95;1705184;77;9999601;-77
2022/05/03 02:39:53;;;;;;;6.28;4.08;;;;;;;11.09;52.59;100454.91;1819065;78;21676;-77
2022/05/03 02:42:21;;;;;;;7.20;4.75;;;;;;;11.10;52.39;100454.37;1854877;77;21026;-76
2022/05/03 02:44:48;;;;;;;7.72;4.50;;;;;;;11.11;52.16;100454.64;1842277;77;21506;-78
2022/05/03 02:47:54;;;;;;;7.28;4.62;;;;;;;11.12;51.98;100454.89;1837484;77;21076;-78
2022/05/03 02:50:24;;;;;;;8.33;4.72;;;;;;;11.12;51.65;100450.89;1800648;78;21245;-78
2022/05/03 02:53:25;;;;;;;7.78;4.60;;;;;;;11.14;51.51;100450.91;1787082;78;21065;-77
2022/05/03 02:56:13;;;;;;;7.55;4.78;;;;;;;11.15;51.34;100458.38;1828852;78;21104;-77
2022/05/03 02:59:23;;;;;;;8.13;4.53;;;;;;;11.18;51.21;100457.86;1808991;78;21508;-76
2022/05/03 03:02:09;;;;;;;6.37;4.28;;;;;;;11.20;50.99;100462.42;1817326;78;21081;-77
2022/05/03 03:05:07;;;;;;;7.37;5.00;;;;;;;11.23;51.04;100453.34;1820725;78;21150;-77
2022/05/03 03:08:02;;;;;;;6.30;4.40;;;;;;;11.26;50.96;100454.69;1825754;76;21524;-76
2022/05/03 03:10:46;;;;;;;6.25;4.60;;;;;;;11.30;50.95;100458.44;1812297;79;20979;-78
2022/05/03 03:13:41;;;;;;;6.30;4.17;;;;;;;11.33;51.24;100460.58;1829479;76;21073;-77
2022/05/03 03:16:10;;;;;;;6.80;4.50;;;;;;;11.35;52.01;100467.82;1814237;78;21197;-77
2022/05/03 03:18:41;;;;;;;6.55;4.80;;;;;;;11.32;52.90;100463.51;1799125;79;21424;-77
2022/05/03 03:21:10;;;;;;;7.03;4.25;;;;;;;11.27;53.64;100461.63;1808363;76;21074;-77
2022/05/03 03:23:42;;;;;;;6.35;4.40;;;;;;;11.25;54.28;100462.42;1827576;78;21001;-79
2022/05/03 03:26:12;;;;;;;7.03;4.67;;;;;;;11.23;54.66;100461.36;1800935;78;21050;-77
2022/05/03 03:28:39;;;;;;;8.50;4.60;;;;;;;11.28;54.85;100459.22;1798638;79;20983;-78
2022/05/03 03:31:07;;;;;;;6.95;4.03;;;;;;;11.32;55.20;100465.67;1741206;79;21145;-78
2022/05/03 03:33:40;;;;;;;6.62;4.03;;;;;;;11.37;55.44;100468.34;1826844;78;21015;-78
2022/05/03 03:36:08;;;;;;;8.30;4.90;;;;;;;11.40;55.86;100464.34;1830418;78;20994;-76
2022/05/03 03:38:40;;;;;;;6.78;4.30;;;;;;;11.42;55.96;100469.70;1830092;78;20999;-77
2022/05/03 03:41:07;;;;;;;6.22;4.53;;;;;;;11.49;56.21;100468.11;1831456;78;20931;-77
2022/05/03 03:43:34;;;;;;;7.47;4.60;;;;;;;11.49;56.60;100470.78;1797011;78;21212;-78
2022/05/03 03:46:03;;;;;;;5.25;3.95;;;;;;;11.50;56.80;100465.16;1816753;79;21209;-76
2022/05/03 03:48:37;;;;;;;6.47;4.25;;;;;;;11.58;56.86;100469.70;1821165;78;21003;-77
2022/05/03 03:51:06;;;;;;;7.60;3.83;;;;;;;11.67;56.89;100468.13;1816301;77;21509;-77
2022/05/03 03:53:34;;;;;;;6.53;4.20;;;;;;;11.74;56.97;100466.78;1845312;77;21052;-77
2022/05/03 03:56:01;;;;;;;6.80;4.55;;;;;;;11.79;57.02;100460.65;1815868;78;21213;-77
2022/05/03 03:58:28;;;;;;;7.25;4.12;;;;;;;11.86;57.13;100462.55;1812586;78;20940;-78
2022/05/03 04:00:55;;;;;;;6.75;4.40;;;;;;;11.92;57.14;100465.50;1828055;78;21744;-78
2022/05/03 04:03:33;;;;;;;6.03;4.33;;;;;;;12.00;57.29;100461.47;1822779;77;20915;-80
2022/05/03 04:06:03;;;;;;;6.05;4.67;;;;;;;12.08;57.37;100459.61;1831535;77;21068;-75
2022/05/03 04:08:31;;;;;;;6.65;4.20;;;;;;;12.27;57.20;100463.05;1830706;77;21462;-78
2022/05/03 04:11:13;;;;;;;7.47;4.40;;;;;;;12.43;57.08;100472.13;1818258;77;21114;-76
2022/05/03 04:13:45;;;;;;;;;;;;;;;12.57;56.51;100480.93;1791732;77;21038;-76
2022/05/03 04:16:11;;;;;;;6.37;4.17;;;;;;;12.71;56.04;100475.28;1811323;79;20188;-77
2022/05/03 04:18:45;;;;;;;6.65;3.92;;;;;;;12.84;55.51;100472.02;1810606;77;21103;-78
2022/05/03 04:21:17;;;;;;;6.65;4.10;;;;;;;13.00;55.33;100473.31;1790748;78;21421;-78
2022/05/03 04:23:45;;;;;;;5.47;3.85;;;;;;;13.17;55.19;100473.76;1857951;77;21407;-77
2022/05/03 04:26:12;;;;;;;6.00;4.10;;;;;;;13.35;54.28;100473.14;1825504;78;21023;-78
2022/05/03 04:28:40;;;;;;;6.03;3.85;;;;;;;13.55;52.70;100478.13;1856232;77;20956;-75
2022/05/03 04:31:13;;;;;;;8.65;4.12;;;;;;;13.68;51.81;100477.49;1824707;77;21070;-74
2022/05/03 04:33:41;;;;;;;6.12;4.30;;;;;;;13.86;50.77;100473.35;1825444;77;21107;-76
2022/05/03 04:36:08;;;;;;;5.43;3.77;;;;;;;14.06;49.37;100465.66;1802645;78;21072;-76
2022/05/03 04:38:35;;;;;;;5.53;3.60;;;;;;;14.23;48.51;100467.37;1798955;77;21261;-76
2022/05/03 04:41:02;;;;;;;5.37;3.40;;;;;;;14.42;47.66;100463.44;1809375;77;21658;-77
2022/05/03 04:43:30;;;;;;;5.70;3.43;;;;;;;14.62;46.86;100460.31;1820981;77;21169;-76
2022/05/03 04:45:58;;;;;;;7.40;3.80;;;;;;;14.77;46.24;100460.94;1825791;77;21222;-77
2022/05/03 04:48:26;;;;;;;5.97;3.40;;;;;;;14.88;45.52;100454.09;1753805;78;21237;-78
2022/05/03 04:50:53;;;;;;;5.10;3.30;;;;;;;14.96;45.28;100455.58;1822444;78;21813;-78
2022/05/03 04:53:24;;;;;;;6.20;3.50;;;;;;;15.05;45.17;100455.75;1806883;77;21260;-78
2022/05/03 04:55:53;;;;;;;7.30;3.60;;;;;;;15.14;44.87;100456.70;1848891;77;21018;-76
2022/05/03 04:58:20;;;;;;;5.77;3.60;;;;;;;15.20;44.62;100450.17;1817923;79;21213;-79
2022/05/03 05:00:47;;;;;;;6.83;3.60;;;;;;;15.25;44.30;100450.63;1810502;77;21312;-77
2022/05/03 05:03:13;;;;;;;5.40;3.47;;;;;;;15.31;44.00;100444.64;1814507;77;21228;-78
2022/05/03 05:05:41;;;;;;;6.07;3.83;;;;;;;15.37;44.00;100442.14;1788145;80;21227;-75
2022/05/03 05:08:10;;;;;;;7.87;3.83;;;;;;;15.45;43.50;100438.77;1825039;77;21711;-76
2022/05/03 05:10:38;;;;;;;7.87;3.70;;;;;;;15.49;42.97;100436.54;1854564;77;21315;-78
2022/05/03 05:13:04;;;;;;;4.50;3.17;;;;;;;15.55;42.65;100439.96;1822481;77;21173;-75
2022/05/03 05:15:32;;;;;;;5.03;3.37;;;;;;;15.62;42.71;100439.04;1842233;77;21195;-77
2022/05/03 05:18:02;;;;;;;5.93;3.47;;;;;;;15.69;42.76;100434.13;1848861;77;21275;-78
2022/05/03 05:20:30;;;;;;;4.70;3.10;;;;;;;15.78;43.00;100428.86;1818738;78;21174;-78
2022/05/03 05:22:57;;;;;;;5.33;3.50;;;;;;;15.91;43.48;100425.41;1859160;77;21431;-76
2022/05/03 05:25:26;;;;;;;7.17;3.83;;;;;;;16.08;43.67;100426.19;1822265;78;21304;-78
2022/05/03 05:27:57;;;;;;;7.20;3.80;;;;;;;16.22;43.83;100422.16;1829002;77;21294;-75
2022/05/03 05:30:23;;;;;;;6.80;3.57;;;;;;;16.33;43.96;100424.13;1810380;77;21802;-77
2022/05/03 05:32:52;;;;;;;6.63;3.53;;;;;;;16.46;43.95;100421.99;1812243;78;21320;-78
2022/05/03 05:35:19;;;;;;;6.03;3.17;;;;;;;16.63;43.72;100413.30;1807318;78;21747;-77
2022/05/03 05:37:48;;;;;;;6.10;3.43;;;;;;;16.96;43.43;100411.28;1833469;76;21345;-75
2022/05/03 05:40:15;;;;;;;5.60;3.60;;;;;;;16.96;43.43;100411.28;1843283;76;21455;-77
2022/05/03 05:42:42;;;;;;;9.17;3.53;;;;;;;17.25;42.39;100418.22;1835724;76;21429;-76
2022/05/03 05:45:12;;;;;;;5.37;3.20;;;;;;;17.38;41.96;100420.63;1833105;76;22114;-76
2022/05/03 05:47:40;;;;;;;5.12;3.40;;;;;;;17.38;41.96;100420.63;1840013;76;21722;-78
2022/05/03 05:50:12;;;;;;;5.73;3.30;;;;;;;17.56;40.99;100419.64;1831358;76;20928;-77
2022/05/03 05:55:24;;;;;;;5.57;3.20;;;;;;;17.67;40.79;100422.88;1825882;76;21650;-77
2022/05/03 05:57:51;;;;;;;4.50;2.70;;;;;;;17.80;40.59;100420.70;1835942;76;21663;-74
2022/05/03 06:00:20;;;;;;;5.10;3.80;;;;;;;17.97;40.72;100423.52;1837257;78;21758;-75
2022/05/03 06:02:48;;;;;;;5.73;3.73;;;;;;;18.15;40.35;100412.79;1837509;78;21676;-75
2022/05/03 06:05:15;;;;;;;5.60;3.50;;;;;;;18.41;41.00;100404.23;1837382;78;21638;-76
2022/05/03 06:07:45;;;;;;;5.23;3.07;;;;;;;18.41;41.00;100404.23;1808380;78;21557;-77
2022/05/03 06:10:13;;;;;;;4.80;2.80;;;;;;;18.54;40.43;100399.81;1804974;79;21681;-76
2022/05/03 06:12:43;;;;;;;3.93;2.70;;;;;;;18.66;40.59;100401.93;1805867;78;21618;-76
2022/05/03 06:15:10;;;;;;;4.00;2.37;;;;;;;18.77;39.07;100400.54;1812685;76;21044;-76
2022/05/03 06:17:40;;;;;;;6.27;2.40;;;;;;;18.86;37.98;100401.92;1825314;76;20995;-77
2022/05/03 06:20:09;;;;;;;3.80;2.13;;;;;;;18.90;37.19;100398.25;1833522;78;21045;-74
2022/05/03 06:22:39;;;;;;;4.53;2.60;;;;;;;18.94;36.71;100397.06;1820146;76;21666;-78
2022/05/03 06:25:09;;;;;;;3.77;2.40;;;;;;;18.96;36.48;100406.46;1819527;78;21502;-77
2022/05/03 06:27:38;;;;;;;5.62;2.35;;;;;;;18.96;36.17;100405.67;1821900;77;28471;-76
2022/05/03 06:30:07;;;;;;;4.30;2.60;;;;;;;18.97;35.69;100409.40;1785725;78;20945;-78
2022/05/03 06:32:36;;;;;;;5.90;2.50;;;;;;;19.02;35.50;100406.29;1823870;77;21031;-76
2022/05/03 06:35:04;;;;;;;5.27;2.20;;;;;;;19.09;35.55;100405.28;1819242;77;20962;-76
2022/05/03 06:37:37;;;;;;;4.73;2.03;;;;;;;19.22;35.40;100408.40;1819689;77;21913;-76
2022/05/03 06:40:07;;;;;;;4.97;2.30;;;;;;;19.42;35.45;100406.39;1833840;76;21019;-76
2022/05/03 06:42:37;;;;;;;;;;;;;;;19.63;34.79;100398.42;1848166;77;21552;-75
2022/05/03 06:45:06;;;;;;;4.60;2.17;;;;;;;19.80;34.07;100394.09;1849123;77;20166;-74
2022/05/03 06:47:33;;;;;;;6.23;2.50;;;;;;;20.01;33.90;100399.63;1831999;77;20990;-78
2022/05/03 06:50:02;;;;;;;4.03;2.20;;;;;;;20.28;33.68;100401.11;1839411;77;21056;-78
2022/05/03 06:52:32;;;;;;;4.87;2.03;;;;;;;20.51;33.18;100401.11;1828490;77;20999;-77
2022/05/03 06:54:59;;;;;;;3.80;2.37;;;;;;;20.64;33.01;100401.20;1812274;76;20983;-77
2022/05/03 06:57:28;;;;;;;2.90;2.03;;;;;;;20.69;32.52;100399.08;1822755;77;20979;-77
2022/05/03 06:59:56;;;;;;;4.43;2.23;;;;;;;20.75;32.68;100398.33;1695471;77;10000221;-76
2022/05/03 07:02:23;;;;;;;4.87;2.40;;;;;;;20.87;31.57;100402.49;1788411;79;21026;-76
2022/05/03 07:04:50;;;;;;;4.63;2.17;;;;;;;20.87;31.29;100404.41;1833967;78;21092;-76
2022/05/03 07:07:17;;;;;;;4.80;1.97;;;;;;;20.86;31.37;100396.81;1834765;78;20994;-77
2022/05/03 07:09:44;;;;;;;3.63;2.07;;;;;;;20.90;30.53;100396.97;1834963;78;20991;-77
2022/05/03 07:12:11;;;;;;;4.30;2.10;;;;;;;20.83;30.93;100396.93;1817067;78;21097;-77
2022/05/03 07:14:40;;;;;;;5.17;2.20;;;;;;;20.82;31.44;100395.32;1826182;78;21074;-76
2022/05/03 07:17:07;;;;;;;8.20;2.33;;;;;;;20.84;31.11;100397.72;1830828;78;21113;-78
2022/05/03 07:25:14;;;;;;;2.80;2.00;;;;;;;20.84;29.58;100400.44;1805910;79;21105;-76
2022/05/03 07:27:41;;;;;;;6.03;2.40;;;;;;;20.85;30.05;100392.52;1823401;78;21213;-77
2022/05/03 07:30:23;;;;;;;5.40;2.20;;;;;;;20.96;30.03;100396.98;1811762;78;21143;-78
2022/05/03 07:32:50;;;;;;;3.17;2.10;;;;;;;21.17;29.95;100386.92;1807849;78;21709;-77
2022/05/03 07:35:18;;;;;;;4.60;2.00;;;;;;;21.43;29.35;100383.23;1811553;78;21062;-79
2022/05/03 07:37:47;;;;;;;4.30;2.50;;;;;;;21.69;29.20;100385.13;1834916;78;21162;-78
2022/05/03 07:40:15;;;;;;;3.77;2.10;;;;;;;21.90;28.77;100380.17;1821184;78;21567;-79
2022/05/03 07:42:51;;;;;;;4.50;2.00;;;;;;;22.03;28.17;100383.14;1831626;78;20982;-78
2022/05/03 07:45:19;;;;;;;4.53;2.03;;;;;;;22.16;27.52;100379.89;1829880;77;21042;-77
2022/05/03 07:47:48;;;;;;;4.37;2.23;;;;;;;22.24;27.09;100381.16;1835828;78;21018;-76
2022/05/03 07:50:16;;;;;;;3.37;1.93;;;;;;;22.27;27.18;100380.23;1830470;78;21082;-77
2022/05/03 07:52:43;;;;;;;5.03;2.30;;;;;;;22.31;27.42;100375.69;1834588;77;21011;-77
2022/05/03 07:55:14;;;;;;;5.33;2.40;;;;;;;22.40;27.22;100372.30;1847068;77;21082;-77
2022/05/03 07:57:42;;;;;;;8.00;2.33;;;;;;;22.52;26.79;100370.14;1854708;77;21440;-79
2022/05/03 08:00:12;;;;;;;3.20;2.00;;;;;;;22.59;26.27;100366.27;1830983;77;21010;-77
2022/05/03 08:02:40;;;;;;;4.30;2.07;;;;;;;22.64;26.34;100365.48;1810513;78;21031;-78
2022/05/03 08:05:10;;;;;;;3.87;1.90;;;;;;;22.73;26.05;100364.55;1819391;78;21064;-78
2022/05/03 08:07:38;;;;;;;3.17;1.90;;;;;;;22.77;26.17;100364.08;1828635;77;21521;-77
2022/05/03 08:10:08;;;;;;;3.73;1.60;;;;;;;22.76;25.48;100361.92;1814777;78;21073;-77
2022/05/03 08:12:37;;;;;;;3.23;1.70;;;;;;;22.73;24.66;100361.83;1835514;77;21003;-76
2022/05/03 08:15:05;;;;;;;6.23;1.80;;;;;;;22.58;24.88;100369.56;1819512;78;21224;-76
2022/05/03 08:17:32;;;;;;;3.53;1.60;;;;;;;22.40;24.89;100362.77;1819872;78;21006;-76
2022/05/03 08:19:59;;;;;;;2.47;1.40;;;;;;;22.29;25.43;100362.44;1842418;77;21023;-78
2022/05/03 08:22:26;;;;;;;2.57;1.53;;;;;;;22.36;25.44;100359.15;1841519;77;20995;-76
2022/05/03 08:24:53;;;;;;;3.73;1.60;;;;;;;22.34;24.29;100359.50;1810268;78;21037;-77
2022/05/03 08:27:20;;;;;;;4.10;1.60;;;;;;;22.29;24.44;100357.58;1814506;78;21096;-78
2022/05/03 08:29:48;;;;;;;2.53;1.60;;;;;;;22.23;24.65;100361.08;1814474;78;21029;-77
2022/05/03 08:32:15;;;;;;;3.83;1.77;;;;;;;22.16;24.73;100349.41;1818119;78;21105;-77
2022/05/03 08:34:43;;;;;;;2.00;1.30;;;;;;;22.04;24.39;100354.80;1798115;79;21066;-75
2022/05/03 08:42:43;;;;;;;5.53;1.83;;;;;;;21.72;25.37;100352.41;1799455;78;21137;-78
2022/05/03 08:45:10;;;;;;;3.10;1.70;;;;;;;21.61;25.69;100345.22;1797647;78;21128;-78
2022/05/03 08:47:38;;;;;;;4.27;1.70;;;;;;;21.54;25.99;100339.55;1815850;78;21034;-77
2022/05/03 08:50:09;;;;;;;3.30;1.70;;;;;;;21.55;25.96;100341.13;1829623;78;21049;-77
2022/05/03 08:52:49;;;;;;;3.90;1.62;;;;;;;21.58;25.81;100339.66;1829649;78;21100;-78
2022/05/03 08:55:17;;;;;;;3.62;1.85;;;;;;;21.60;25.62;100341.49;1831102;78;21061;-77
2022/05/03 08:57:45;;;;;;;2.37;1.37;;;;;;;21.59;25.71;100337.98;1808525;78;20998;-76
2022/05/03 09:00:13;;;;;;;3.40;1.70;;;;;;;21.65;26.23;100336.64;1815206;78;21031;-76
2022/05/03 09:02:46;;;;;;;3.87;1.70;;;;;;;21.74;26.00;100341.39;1829260;78;21017;-76
2022/05/03 09:05:13;;;;;;;3.00;1.57;;;;;;;21.79;25.54;100334.97;1688763;77;9999961;-76
2022/05/03 09:07:56;;;;;;;4.17;1.80;;;;;;;21.83;25.40;100336.44;1850050;77;22298;-78
2022/05/03 09:10:36;;;;;;;2.17;1.40;;;;;;;21.84;25.58;100339.38;1818725;78;21707;-77
2022/05/03 09:13:22;;;;;;;3.43;1.60;;;;;;;21.76;25.22;100330.20;1819055;78;21047;-76
2022/05/03 09:15:55;;;;;;;4.67;1.47;;;;;;;21.62;26.18;100334.59;1810349;78;21164;-77
2022/05/03 09:18:26;;;;;;;4.07;1.40;;;;;;;21.62;26.57;100329.16;1814883;78;21696;-76
2022/05/03 09:23:47;;;;;;;1.87;1.30;;;;;;;21.69;25.60;100314.45;1827480;78;21026;-76
2022/05/03 09:26:19;;;;;;;4.07;1.57;;;;;;;21.77;25.33;100309.45;1827946;78;21647;-77
2022/05/03 09:29:10;;;;;;;3.87;1.40;;;;;;;21.95;24.66;100301.90;1828754;78;21216;-75
2022/05/03 09:31:50;;;;;;;2.97;1.90;;;;;;;22.23;25.02;100288.98;1825502;78;21059;-75
2022/05/03 09:34:25;;;;;;;3.47;2.10;;;;;;;22.60;24.39;100280.17;1797045;79;21189;-77
2022/05/03 09:37:05;;;;;;;4.60;2.53;;;;;;;22.85;24.08;100274.66;1797434;79;21063;-77
2022/05/03 09:39:41;;;;;;;5.03;1.97;;;;;;;23.10;23.72;100271.27;1816432;78;21065;-76
2022/05/03 09:42:12;;;;;;;4.00;1.63;;;;;;;23.24;23.70;100267.58;1830282;78;21810;-77
2022/05/03 09:45:05;;;;;;;2.95;1.50;;;;;;;23.36;23.13;100259.34;1830489;78;20918;-76
2022/05/03 09:47:34;;;;;;;2.77;1.50;;;;;;;23.45;23.47;100250.98;1829688;78;21117;-77
2022/05/03 09:50:03;;;;;;;4.90;1.50;;;;;;;23.64;23.15;100241.52;1810617;78;21058;-75
2022/05/03 09:52:36;;;;;;;;;;;;;;;23.93;23.45;100242.81;1826329;77;21596;-77
2022/05/03 09:55:07;;;;;;;2.30;1.40;;;;;;;24.17;22.85;100234.38;1784289;79;21240;-77
2022/05/03 09:57:37;;;;;;;3.02;1.60;;;;;;;24.44;22.13;100229.12;1820371;78;28939;-76
2022/05/03 10:00:06;;;;;;;3.53;1.50;;;;;;;24.64;22.39;100232.65;1722990;77;9999971;-77
2022/05/03 10:02:35;;;;;;;3.62;1.72;;;;;;;24.85;22.22;100230.92;1838463;77;20978;-77
2022/05/03 10:05:02;;;;;;;5.77;1.90;;;;;;;24.80;21.09;100230.63;1810074;78;21249;-78
2022/05/03 10:07:30;;;;;;;4.37;1.80;;;;;;;24.51;21.95;100221.08;1842017;77;21026;-76
2022/05/03 10:09:59;;;;;;;2.90;1.60;;;;;;;24.46;22.07;100220.80;1840310;77;20971;-77
2022/05/03 10:12:30;;;;;;;5.67;1.97;;;;;;;24.55;22.07;100220.02;1845356;77;21080;-76
2022/05/03 10:14:58;;;;;;;3.97;1.70;;;;;;;24.64;22.12;100214.31;1838286;77;20971;-76
2022/05/03 10:20:40;;;;;;;4.40;1.80;;;;;;;24.74;22.01;100214.31;1824602;78;20936;-77
2022/05/03 10:23:25;;;;;;;2.80;1.60;;;;;;;24.89;22.01;100205.83;1831202;77;20975;-78
2022/05/03 10:25:57;;;;;;;4.17;1.60;;;;;;;24.92;21.77;100197.69;1856178;77;20999;-75
2022/05/03 10:28:29;;;;;;;3.87;1.80;;;;;;;25.15;22.00;100201.05;1855334;77;21151;-73
2022/05/03 10:31:09;;;;;;;4.60;1.90;;;;;;;25.19;22.30;100199.95;1817816;77;21209;-76
2022/05/03 10:33:38;;;;;;;3.33;1.67;;;;;;;25.31;21.93;100199.57;1853929;77;21145;-77
2022/05/03 10:36:33;;;;;;;2.63;1.50;;;;;;;25.42;21.88;100191.73;1853190;77;21219;-77
2022/05/03 10:39:13;;;;;;;3.70;1.60;;;;;;;25.47;21.63;100190.08;1852961;77;20999;-77
2022/05/03 10:41:59;;;;;;;3.33;1.45;;;;;;;25.67;21.33;100177.09;1844287;77;21054;-77
2022/05/03 10:44:58;;;;;;;3.33;1.40;;;;;;;25.69;21.53;100176.71;1825784;77;21080;-76
2022/05/03 10:47:54;;;;;;;2.33;1.47;;;;;;;25.62;21.45;100174.66;1726407;81;21049;-77
2022/05/03 10:50:34;;;;;;;3.00;1.53;;;;;;;25.52;20.91;100168.45;1855944;77;21056;-78
2022/05/03 10:53:07;;;;;;;4.13;1.70;;;;;;;25.32;20.61;100177.32;1857267;77;21063;-77
2022/05/03 10:55:40;;;;;;;3.17;1.53;;;;;;;24.91;20.27;100177.00;1857544;75;21049;-76
2022/05/03 10:58:32;;;;;;;2.31;1.37;;;;;;;24.39;20.68;100172.86;1720401;75;10001139;-76
2022/05/03 11:01:20;;;;;;;3.50;1.57;;;;;;;24.07;21.05;100170.83;1862699;74;21015;-75
2022/05/03 11:04:00;;;;;;;2.97;1.63;;;;;;;24.09;21.39;100165.81;1821424;78;21042;-77
2022/05/03 11:06:32;;;;;;;4.30;1.67;;;;;;;24.09;20.88;100152.95;1824250;78;21081;-76
2022/05/03 11:11:44;;;;;;;2.73;1.43;;;;;;;24.05;22.08;100143.91;1834744;78;21065;-76
2022/05/03 11:14:24;;;;;;;3.23;2.07;;;;;;;24.28;22.19;100141.81;1828429;78;21490;-77
2022/05/03 11:17:08;;;;;;;5.07;1.73;;;;;;;24.53;21.53;100143.13;1829386;78;21103;-75
2022/05/03 11:19:42;;;;;;;2.47;1.40;;;;;;;24.73;21.34;100128.08;1833168;78;21061;-77
2022/05/03 11:22:15;;;;;;;4.10;1.60;;;;;;;24.95;21.63;100128.67;1836783;78;21098;-77
2022/05/03 11:24:44;;;;;;;4.13;1.77;;;;;;;25.15;21.64;100123.16;1833992;78;21038;-75
2022/05/03 11:27:12;;;;;;;3.37;1.70;;;;;;;25.21;21.34;100127.17;1833969;78;21014;-76
2022/05/03 11:30:00;;;;;;;4.77;1.70;;;;;;;25.15;21.15;100116.33;1833329;78;21034;-75
2022/05/03 11:32:38;;;;;;;3.73;1.80;;;;;;;25.08;20.89;100123.81;1788046;79;21117;-75
2022/05/03 11:35:14;;;;;;;3.40;1.70;;;;;;;24.92;21.51;100119.83;1822843;78;21115;-77
2022/05/03 11:38:00;;;;;;;6.40;1.93;;;;;;;24.81;21.29;100117.50;1835219;78;21018;-75
2022/05/03 11:40:27;;;;;;;3.77;1.83;;;;;;;24.47;21.36;100120.00;1835916;78;20986;-76
2022/05/03 11:42:55;;;;;;;3.53;1.80;;;;;;;24.19;21.29;100120.22;1835839;78;21097;-76
2022/05/03 11:45:24;;;;;;;4.17;1.60;;;;;;;23.98;22.02;100115.09;1835974;78;21041;-78
2022/05/03 11:47:51;;;;;;;3.57;1.90;;;;;;;23.98;22.49;100109.64;1836830;78;21995;-77
2022/05/03 11:55:59;;;;;;;5.37;1.90;;;;;;;24.30;22.64;100111.66;1804790;78;21053;-73
2022/05/03 11:58:27;;;;;;;3.90;1.60;;;;;;;24.46;22.34;100097.16;1683656;78;9999595;-76
2022/05/03 12:00:54;;;;;;;2.77;1.60;;;;;;;24.64;21.92;100094.16;1836228;78;21070;-76
2022/05/03 12:03:22;;;;;;;3.57;1.80;;;;;;;24.69;21.77;100101.28;1835709;78;21019;-76
2022/05/03 12:06:03;;;;;;;4.23;2.17;;;;;;;24.67;21.41;100092.66;1830084;78;21011;-77
2022/05/03 12:08:31;;;;;;;3.37;1.53;;;;;;;24.63;21.73;100084.98;1824047;78;21128;-76
2022/05/03 12:10:57;;;;;;;3.03;1.60;;;;;;;24.62;21.93;100080.69;1834761;78;21787;-76
2022/05/03 12:13:31;;;;;;;3.07;1.77;;;;;;;24.69;21.90;100072.61;1834504;78;21141;-76
2022/05/03 12:16:03;;;;;;;1.93;1.50;;;;;;;24.71;22.19;100074.38;1814474;78;21089;-77
2022/05/03 12:18:41;;;;;;;4.10;1.80;;;;;;;24.70;21.98;100072.81;1836112;78;21022;-77
2022/05/03 12:21:26;;;;;;;3.13;1.90;;;;;;;24.62;21.53;100077.37;1815263;78;20936;-74
2022/05/03 12:23:54;;;;;;;2.90;1.80;;;;;;;24.22;21.60;100076.39;1833614;78;21156;-75
2022/05/03 12:26:27;;;;;;;5.50;1.70;;;;;;;23.73;22.10;100076.98;1821922;77;21128;-76
2022/05/03 12:28:59;;;;;;;3.47;1.80;;;;;;;23.70;22.36;100069.52;1781747;80;21038;-76
2022/05/03 12:31:40;;;;;;;2.33;1.50;;;;;;;23.54;22.74;100064.08;1782387;80;21046;-76
2022/05/03 12:34:13;;;;;;;2.47;1.80;;;;;;;23.54;22.93;100065.44;1781524;80;21069;-76
2022/05/03 12:36:44;;;;;;;4.53;1.83;;;;;;;23.54;22.94;100058.05;1816728;78;21078;-75